Time;durP1;ratioP1;P1;durP2;ratioP2;P2;SDS_P1;SDS_P2;PMS_P1;PMS_P2;Temp;Humidity;BMP_temperature;BMP_pressure;BME280_temperature;BME280_humidity;BME280_pressure;Samples;Min_cycle;Max_cycle;Signal;HPM_P1;HPM_P2
2023/11/12 00:00:16;;;;;;;3.22;1.35;;;4.30;99.90;;;;;;5053327;28;20040;-79
2023/11/12 00:02:42;;;;;;;7.93;1.88;;;4.40;99.90;;;;;;5054748;28;20036;-79
2023/11/12 00:05:09;;;;;;;3.47;1.38;;;4.40;99.90;;;;;;5053190;28;20085;-79
2023/11/12 00:07:35;;;;;;;4.35;1.52;;;4.40;99.90;;;;;;5055983;28;20037;-79
2023/11/12 00:10:01;;;;;;;6.32;2.45;;;4.40;99.90;;;;;;5055621;28;20032;-79
2023/11/12 00:12:28;;;;;;;3.75;1.70;;;4.50;99.90;;;;;;5054195;28;20036;-79
2023/11/12 00:14:54;;;;;;;4.88;1.70;;;4.50;99.90;;;;;;5056920;28;20037;-79
2023/11/12 00:17:19;;;;;;;4.53;1.70;;;4.40;99.90;;;;;;5055549;28;20686;-79
2023/11/12 00:19:45;;;;;;;3.72;1.40;;;4.10;99.90;;;;;;5055901;28;20418;-79
2023/11/12 00:22:12;;;;;;;3.40;1.50;;;3.80;99.90;;;;;;5057616;28;20063;-79
2023/11/12 00:24:39;;;;;;;2.92;0.95;;;3.80;99.90;;;;;;5056368;28;20446;-79
2023/11/12 00:27:04;;;;;;;3.33;1.35;;;3.80;99.90;;;;;;5055401;28;20041;-79
2023/11/12 00:29:31;;;;;;;4.10;2.03;;;3.70;99.90;;;;;;5058101;28;20044;-79
2023/11/12 00:31:57;;;;;;;6.78;1.30;;;3.80;99.90;;;;;;5056234;28;20039;-79
2023/11/12 00:34:23;;;;;;;2.90;1.20;;;3.80;99.90;;;;;;5055961;28;20029;-79
2023/11/12 00:36:49;;;;;;;2.65;1.02;;;3.90;99.90;;;;;;5057421;28;20105;-78
2023/11/12 00:39:15;;;;;;;3.28;1.58;;;3.90;99.90;;;;;;5057538;28;20040;-78
2023/11/12 00:41:41;;;;;;;3.35;1.42;;;4.00;99.90;;;;;;5056722;28;21554;-79
2023/11/12 00:44:10;;;;;;;3.22;1.30;;;3.90;99.90;;;;;;5056691;28;20028;-78
2023/11/12 00:46:40;;;;;;;3.30;1.42;;;4.00;99.90;;;;;;5056552;28;20078;-79
2023/11/12 00:49:07;;;;;;;5.75;1.42;;;3.80;99.90;;;;;;5055958;28;20032;-79
2023/11/12 00:51:34;;;;;;;9.93;4.10;;;3.70;99.90;;;;;;5056929;28;20025;-79
2023/11/12 00:54:00;;;;;;;11.82;5.47;;;3.70;99.90;;;;;;5053987;28;20040;-79
2023/11/12 00:56:26;;;;;;;3.78;1.63;;;3.70;99.90;;;;;;5055459;28;20056;-79
2023/11/12 00:58:52;;;;;;;6.18;3.33;;;3.80;99.90;;;;;;5057853;28;20032;-79
2023/11/12 01:01:18;;;;;;;8.35;4.07;;;3.80;99.90;;;;;;5055819;28;20056;-78
2023/11/12 01:03:44;;;;;;;6.25;2.40;;;3.70;99.90;;;;;;5054884;28;20585;-79
2023/11/12 01:06:10;;;;;;;6.90;1.92;;;3.70;99.90;;;;;;5055950;28;20032;-79
2023/11/12 01:08:35;;;;;;;4.00;1.80;;;3.70;99.90;;;;;;5054618;28;21044;-78
2023/11/12 01:11:01;;;;;;;4.40;2.03;;;3.70;99.90;;;;;;5055265;28;20478;-79
2023/11/12 01:13:27;;;;;;;3.03;0.77;;;3.60;99.90;;;;;;5055064;28;20111;-78
2023/11/12 01:15:53;;;;;;;2.38;1.02;;;3.60;99.90;;;;;;5055369;28;20067;-79
2023/11/12 01:18:20;;;;;;;3.88;1.50;;;3.50;99.90;;;;;;5055402;28;20041;-79
2023/11/12 01:20:46;;;;;;;2.45;1.08;;;3.60;99.90;;;;;;5056790;28;21156;-78
2023/11/12 01:23:13;;;;;;;3.65;0.88;;;3.50;99.90;;;;;;5055153;28;20040;-79
2023/11/12 01:25:40;;;;;;;2.83;1.25;;;3.50;99.90;;;;;;5054618;28;21000;-79
2023/11/12 01:28:06;;;;;;;4.80;1.30;;;3.30;99.90;;;;;;5056164;28;20039;-79
2023/11/12 01:30:32;;;;;;;2.55;1.25;;;3.20;99.90;;;;;;5054697;28;20037;-78
2023/11/12 01:32:58;;;;;;;2.55;0.95;;;3.30;99.90;;;;;;5054441;28;20393;-79
2023/11/12 01:35:24;;;;;;;3.83;1.27;;;3.40;99.90;;;;;;5055898;28;20060;-79
2023/11/12 01:37:49;;;;;;;5.03;1.40;;;3.40;99.90;;;;;;5055200;28;20127;-79
2023/11/12 01:40:16;;;;;;;3.63;1.30;;;3.40;99.90;;;;;;5056049;28;21328;-79
2023/11/12 01:42:45;;;;;;;3.70;1.55;;;3.50;99.90;;;;;;5052495;28;20036;-78
2023/11/12 01:45:12;;;;;;;2.90;1.30;;;3.40;99.90;;;;;;5054396;28;20490;-79
2023/11/12 01:47:39;;;;;;;4.20;1.23;;;3.40;99.90;;;;;;5055252;28;20036;-79
2023/11/12 01:50:09;;;;;;;3.08;1.30;;;3.40;99.90;;;;;;5054523;28;20574;-78
2023/11/12 01:52:37;;;;;;;3.42;1.50;;;3.40;99.90;;;;;;5054991;28;20121;-79
2023/11/12 01:55:06;;;;;;;2.10;0.80;;;3.50;99.90;;;;;;5055598;28;20033;-78
2023/11/12 01:57:34;;;;;;;2.80;1.23;;;3.30;99.90;;;;;;5053886;28;20080;-78
2023/11/12 02:00:01;;;;;;;4.22;1.50;;;3.20;99.90;;;;;;5053360;28;20037;-78
2023/11/12 02:02:35;;;;;;;3.45;1.13;;;3.20;99.90;;;;;;5055428;28;20387;-79
2023/11/12 02:05:01;;;;;;;3.00;1.23;;;3.10;99.90;;;;;;5055719;28;20067;-78
2023/11/12 02:07:27;;;;;;;4.20;1.50;;;3.10;99.90;;;;;;5053784;28;20115;-78
2023/11/12 02:10:05;;;;;;;3.95;1.83;;;3.30;99.90;;;;;;5055073;28;20043;-79
2023/11/12 02:12:30;;;;;;;2.83;1.52;;;3.30;99.90;;;;;;5055670;28;20032;-78
2023/11/12 02:14:56;;;;;;;5.40;1.33;;;3.20;99.90;;;;;;5054839;28;20044;-78
2023/11/12 02:17:22;;;;;;;3.15;1.48;;;3.00;99.90;;;;;;5052506;28;20119;-78
2023/11/12 02:19:47;;;;;;;2.47;1.23;;;3.10;99.90;;;;;;5055690;28;20044;-78
2023/11/12 02:22:13;;;;;;;3.15;1.50;;;3.10;99.90;;;;;;5054416;28;20040;-78
2023/11/12 02:24:38;;;;;;;2.58;1.13;;;3.10;99.90;;;;;;5054633;28;20041;-79
2023/11/12 02:27:04;;;;;;;3.22;1.60;;;3.10;99.90;;;;;;5054655;28;20035;-78
2023/11/12 02:29:30;;;;;;;3.25;1.17;;;3.10;99.90;;;;;;5056479;28;21347;-78
2023/11/12 02:31:56;;;;;;;3.03;1.27;;;3.20;99.90;;;;;;5053973;28;20036;-78
2023/11/12 02:34:21;;;;;;;3.63;1.20;;;3.30;99.90;;;;;;5053939;28;20390;-78
2023/11/12 02:36:47;;;;;;;3.08;1.23;;;3.30;99.90;;;;;;5054720;28;20228;-78
2023/11/12 02:39:15;;;;;;;4.97;1.58;;;3.20;99.90;;;;;;5055219;28;20067;-78
2023/11/12 02:41:41;;;;;;;5.43;1.40;;;3.10;99.90;;;;;;5056912;28;20032;-78
2023/11/12 02:44:11;;;;;;;3.17;1.40;;;3.10;99.90;;;;;;5059600;28;20028;-78
2023/11/12 02:46:38;;;;;;;4.20;1.55;;;3.10;99.90;;;;;;5058424;28;20108;-78
2023/11/12 02:49:29;;;;;;;3.13;1.40;;;3.20;99.90;;;;;;5058683;28;20063;-78
2023/11/12 02:51:54;;;;;;;4.38;1.20;;;3.10;99.90;;;;;;5057981;28;20367;-79
2023/11/12 02:54:20;;;;;;;3.22;1.58;;;3.10;99.90;;;;;;5057117;28;20039;-78
2023/11/12 02:56:46;;;;;;;2.83;1.25;;;3.20;99.90;;;;;;5057635;28;20106;-78
2023/11/12 02:59:12;;;;;;;2.85;1.08;;;3.30;99.90;;;;;;5058191;28;20086;-79
2023/11/12 03:01:37;;;;;;;4.60;1.42;;;3.30;99.90;;;;;;5057632;28;20028;-78
2023/11/12 03:04:03;;;;;;;3.28;1.58;;;3.30;99.90;;;;;;5057535;28;20037;-78
2023/11/12 03:06:29;;;;;;;5.25;1.45;;;3.30;99.90;;;;;;5057121;28;20067;-78
2023/11/12 03:08:55;;;;;;;3.45;1.40;;;3.40;99.90;;;;;;5058560;28;20032;-78
2023/11/12 03:11:20;;;;;;;3.15;1.30;;;3.40;99.90;;;;;;5057956;28;20143;-78
2023/11/12 03:13:46;;;;;;;6.30;1.70;;;3.40;99.90;;;;;;5057906;28;20024;-78
2023/11/12 03:16:15;;;;;;;3.42;1.40;;;3.60;99.90;;;;;;5059648;28;20544;-78
2023/11/12 03:18:41;;;;;;;3.13;1.20;;;3.50;99.90;;;;;;5057372;28;20089;-78
2023/11/12 03:21:09;;;;;;;2.90;0.90;;;3.50;99.90;;;;;;5057488;28;20114;-78
2023/11/12 03:23:35;;;;;;;3.70;1.35;;;3.30;99.90;;;;;;5058814;28;20482;-78
2023/11/12 03:26:01;;;;;;;2.20;1.10;;;3.30;99.90;;;;;;5057400;28;20051;-78
2023/11/12 03:28:27;;;;;;;4.63;1.27;;;3.40;99.90;;;;;;5057431;28;20175;-78
2023/11/12 03:30:52;;;;;;;6.32;1.13;;;3.40;99.90;;;;;;5058999;28;20039;-78
2023/11/12 03:33:18;;;;;;;6.63;1.17;;;3.30;99.90;;;;;;5057783;28;20028;-78
2023/11/12 03:35:45;;;;;;;3.20;1.10;;;3.30;99.90;;;;;;5057716;28;20156;-78
2023/11/12 03:38:11;;;;;;;3.03;1.40;;;3.20;99.90;;;;;;5058963;28;20111;-78
2023/11/12 03:40:37;;;;;;;2.25;1.15;;;3.10;99.90;;;;;;5056800;28;20062;-78
2023/11/12 03:43:04;;;;;;;5.20;1.95;;;3.10;99.90;;;;;;5056837;28;20016;-78
2023/11/12 03:45:29;;;;;;;2.13;1.00;;;3.00;99.90;;;;;;5057611;28;20016;-78
2023/11/12 03:47:55;;;;;;;4.05;1.33;;;3.10;99.90;;;;;;5057421;28;20040;-78
2023/11/12 03:50:21;;;;;;;3.85;1.13;;;3.10;99.90;;;;;;5056249;28;20041;-78
2023/11/12 03:52:46;;;;;;;2.15;1.00;;;3.20;99.90;;;;;;5057822;28;20039;-78
2023/11/12 03:55:12;;;;;;;3.17;1.10;;;3.10;99.90;;;;;;5057430;28;20398;-78
2023/11/12 03:57:38;;;;;;;2.78;1.30;;;3.10;99.90;;;;;;5056900;28;20716;-78
2023/11/12 04:00:04;;;;;;;3.20;1.30;;;3.10;99.90;;;;;;5057470;28;20044;-78
2023/11/12 04:02:30;;;;;;;3.13;1.20;;;3.20;99.90;;;;;;5055938;28;20135;-78
2023/11/12 04:04:57;;;;;;;4.18;1.40;;;3.20;99.90;;;;;;5052804;28;20542;-79
2023/11/12 04:07:23;;;;;;;1.63;0.82;;;3.20;99.90;;;;;;5053181;28;20398;-78
2023/11/12 04:09:49;;;;;;;2.83;1.00;;;3.40;99.90;;;;;;5054044;28;20032;-78
2023/11/12 04:12:14;;;;;;;5.35;1.33;;;3.60;99.90;;;;;;5053530;28;20043;-79
2023/11/12 04:14:40;;;;;;;4.40;1.67;;;3.70;99.90;;;;;;5053703;28;20040;-79
2023/11/12 04:17:06;;;;;;;2.53;1.25;;;3.80;99.90;;;;;;5052464;28;20120;-78
2023/11/12 04:19:31;;;;;;;3.17;1.20;;;3.80;99.90;;;;;;5051956;28;20046;-79
2023/11/12 04:21:57;;;;;;;2.92;1.40;;;3.70;99.90;;;;;;5052051;28;20037;-79
2023/11/12 04:24:23;;;;;;;3.08;1.40;;;3.60;99.90;;;;;;5053396;28;20036;-78
2023/11/12 04:26:48;;;;;;;3.78;1.00;;;3.40;99.90;;;;;;5053112;28;20045;-78
2023/11/12 04:29:14;;;;;;;2.70;0.95;;;3.30;99.90;;;;;;5054667;28;20097;-79
2023/11/12 04:31:40;;;;;;;4.15;1.30;;;3.20;99.90;;;;;;5054359;28;20040;-78
2023/11/12 04:34:07;;;;;;;2.28;0.95;;;3.20;99.90;;;;;;5053543;28;20040;-78
2023/11/12 04:36:35;;;;;;;4.10;1.27;;;3.30;99.90;;;;;;5054995;28;20044;-78
2023/11/12 04:39:00;;;;;;;3.67;1.05;;;3.30;99.90;;;;;;5053622;28;20040;-78
2023/11/12 04:41:27;;;;;;;3.30;1.13;;;3.10;99.90;;;;;;5052982;28;20055;-78
2023/11/12 04:43:53;;;;;;;2.47;1.20;;;3.10;99.90;;;;;;5053828;28;20032;-78
2023/11/12 04:46:19;;;;;;;2.90;1.30;;;3.20;99.90;;;;;;5052040;28;20078;-78
2023/11/12 04:48:46;;;;;;;2.35;1.15;;;3.20;99.90;;;;;;5053790;28;20028;-79
2023/11/12 04:51:11;;;;;;;2.60;1.10;;;3.30;99.90;;;;;;5054136;28;20036;-78
2023/11/12 04:53:38;;;;;;;3.50;1.23;;;3.20;99.90;;;;;;5053537;28;20475;-78
2023/11/12 04:56:11;;;;;;;3.17;1.20;;;3.40;99.90;;;;;;5052874;28;20127;-78
2023/11/12 04:58:37;;;;;;;3.53;1.08;;;3.50;99.90;;;;;;5054676;28;20035;-78
2023/11/12 05:01:03;;;;;;;4.32;1.42;;;3.80;99.90;;;;;;5052341;28;20048;-79
2023/11/12 05:03:31;;;;;;;4.97;1.30;;;3.90;99.90;;;;;;5052335;28;20335;-78
2023/11/12 05:06:00;;;;;;;2.95;1.20;;;4.00;99.90;;;;;;5053741;28;20060;-79
2023/11/12 05:08:27;;;;;;;3.28;1.40;;;4.00;99.90;;;;;;5053767;28;20036;-78
2023/11/12 05:10:52;;;;;;;2.72;1.05;;;4.10;99.90;;;;;;5051975;28;20037;-79
2023/11/12 05:13:19;;;;;;;2.85;0.98;;;4.00;99.90;;;;;;5051253;28;20071;-79
2023/11/12 05:15:44;;;;;;;3.50;1.38;;;4.20;99.90;;;;;;5048704;28;20121;-78
2023/11/12 05:18:10;;;;;;;2.08;0.90;;;4.30;99.90;;;;;;5051340;28;20135;-78
2023/11/12 05:20:36;;;;;;;2.40;1.00;;;4.30;99.90;;;;;;5052209;28;20043;-78
2023/11/12 05:23:02;;;;;;;2.63;1.05;;;4.20;99.90;;;;;;5051150;28;20111;-78
2023/11/12 05:25:28;;;;;;;3.40;1.17;;;4.20;99.90;;;;;;5051660;28;20112;-79
2023/11/12 05:27:54;;;;;;;3.53;1.10;;;4.10;99.90;;;;;;5052619;28;21710;-79
2023/11/12 05:30:20;;;;;;;2.92;1.30;;;3.90;99.90;;;;;;5053416;28;20056;-78
2023/11/12 05:32:47;;;;;;;3.33;1.20;;;4.00;99.90;;;;;;5051002;28;20104;-78
2023/11/12 05:35:13;;;;;;;2.97;1.35;;;3.90;99.90;;;;;;5052754;28;20512;-79
2023/11/12 05:37:38;;;;;;;3.78;2.03;;;3.80;99.90;;;;;;5052541;28;20036;-79
2023/11/12 05:40:05;;;;;;;3.17;1.58;;;3.90;99.90;;;;;;5052151;28;20045;-79
2023/11/12 05:42:30;;;;;;;3.63;1.33;;;3.80;99.90;;;;;;5051061;28;20049;-79
2023/11/12 05:44:56;;;;;;;2.80;1.30;;;3.90;99.90;;;;;;5050954;28;20028;-78
2023/11/12 05:47:22;;;;;;;5.03;1.98;;;4.00;99.90;;;;;;5049484;28;20147;-79
2023/11/12 05:49:47;;;;;;;5.28;2.65;;;3.80;99.90;;;;;;5052326;28;20020;-79
2023/11/12 05:52:13;;;;;;;3.53;1.65;;;3.80;99.90;;;;;;5051755;28;20032;-79
2023/11/12 05:54:39;;;;;;;4.47;2.00;;;3.60;99.90;;;;;;5050769;28;20099;-78
2023/11/12 05:57:04;;;;;;;4.82;1.50;;;3.70;99.90;;;;;;5051810;28;20067;-79
2023/11/12 05:59:30;;;;;;;3.88;1.38;;;3.80;99.90;;;;;;5052170;28;20086;-78
2023/11/12 06:01:57;;;;;;;3.45;1.70;;;3.80;99.90;;;;;;5051444;28;20048;-78
2023/11/12 06:04:22;;;;;;;1.90;1.08;;;3.90;99.90;;;;;;5050423;28;20036;-78
2023/11/12 06:06:49;;;;;;;3.97;1.48;;;3.90;99.90;;;;;;5049917;28;20036;-79
2023/11/12 06:09:15;;;;;;;3.60;1.60;;;3.80;99.90;;;;;;5050503;28;20039;-79
2023/11/12 06:11:41;;;;;;;3.47;1.75;;;4.00;99.90;;;;;;5051231;28;20040;-79
2023/11/12 06:14:06;;;;;;;4.25;2.03;;;3.90;99.90;;;;;;5051894;28;20119;-78
2023/11/12 06:16:33;;;;;;;6.40;2.20;;;3.80;99.90;;;;;;5051605;28;20037;-79
2023/11/12 06:18:58;;;;;;;3.22;1.10;;;3.70;99.90;;;;;;5050648;28;20035;-78
2023/11/12 06:21:25;;;;;;;3.67;1.35;;;3.80;99.90;;;;;;5052610;28;20041;-79
2023/11/12 06:23:51;;;;;;;148.80;84.45;;;4.00;99.90;;;;;;5051279;28;20112;-78
2023/11/12 06:26:20;;;;;;;42.28;25.65;;;3.90;99.90;;;;;;5051268;28;20037;-79
2023/11/12 06:28:47;;;;;;;31.85;17.60;;;3.80;99.90;;;;;;5052391;28;20626;-78
2023/11/12 06:31:13;;;;;;;13.95;8.23;;;3.60;99.90;;;;;;5051935;28;20036;-78
2023/11/12 06:33:39;;;;;;;13.57;6.60;;;3.50;99.90;;;;;;5052168;28;20378;-79
2023/11/12 06:36:05;;;;;;;8.18;3.88;;;3.50;99.90;;;;;;5050912;28;20024;-79
2023/11/12 06:38:31;;;;;;;5.78;3.60;;;3.40;99.90;;;;;;5048629;28;20028;-79
2023/11/12 06:40:56;;;;;;;4.32;2.20;;;3.50;99.90;;;;;;5048773;28;20105;-79
2023/11/12 06:43:22;;;;;;;6.85;2.72;;;3.30;99.90;;;;;;5048768;28;21239;-79
2023/11/12 06:45:48;;;;;;;4.97;2.58;;;3.50;99.90;;;;;;5047833;28;20041;-79
2023/11/12 06:48:13;;;;;;;3.40;1.42;;;3.70;99.90;;;;;;5050956;28;20934;-79
2023/11/12 06:50:39;;;;;;;4.18;2.13;;;3.90;99.90;;;;;;5052979;28;20040;-79
2023/11/12 06:53:05;;;;;;;5.25;2.50;;;3.80;99.90;;;;;;5053647;28;20037;-78
2023/11/12 06:55:32;;;;;;;3.72;2.00;;;3.70;99.90;;;;;;5053695;28;20082;-77
2023/11/12 06:57:58;;;;;;;3.72;1.55;;;3.90;99.90;;;;;;5052612;28;20075;-75
2023/11/12 07:00:24;;;;;;;2.65;1.02;;;4.10;99.90;;;;;;5050146;28;20127;-77
2023/11/12 07:02:49;;;;;;;2.17;0.85;;;4.40;99.90;;;;;;5050387;28;20548;-76
2023/11/12 07:05:16;;;;;;;2.90;0.77;;;4.50;99.90;;;;;;5050853;28;20090;-76
2023/11/12 07:07:42;;;;;;;4.03;1.10;;;4.60;99.90;;;;;;5049923;28;20414;-76
2023/11/12 07:10:08;;;;;;;3.42;1.45;;;4.50;99.90;;;;;;5046766;28;20043;-77
2023/11/12 07:12:34;;;;;;;3.50;1.73;;;4.30;99.90;;;;;;5047504;28;20445;-76
2023/11/12 07:15:00;;;;;;;3.47;1.75;;;3.90;99.90;;;;;;5046101;28;20094;-77
2023/11/12 07:17:25;;;;;;;4.68;2.30;;;3.90;99.90;;;;;;5045953;28;20081;-77
2023/11/12 07:19:53;;;;;;;3.95;1.83;;;4.00;99.90;;;;;;5046675;28;20039;-78
2023/11/12 07:22:18;;;;;;;4.10;1.83;;;4.10;99.90;;;;;;5045540;28;20179;-78
2023/11/12 07:24:44;;;;;;;4.25;1.73;;;4.00;99.90;;;;;;5046383;28;20044;-77
2023/11/12 07:27:09;;;;;;;3.17;1.45;;;4.10;99.90;;;;;;5047529;28;20036;-77
2023/11/12 07:29:35;;;;;;;3.90;1.95;;;4.30;99.90;;;;;;5049811;28;20595;-77
2023/11/12 07:32:01;;;;;;;13.43;10.05;;;4.40;99.90;;;;;;5051521;28;20021;-77
2023/11/12 07:34:26;;;;;;;12.55;8.95;;;4.60;99.90;;;;;;5049767;28;20037;-77
2023/11/12 07:36:52;;;;;;;9.40;6.93;;;4.60;99.90;;;;;;5048997;28;20029;-77
2023/11/12 07:39:18;;;;;;;6.45;4.10;;;4.70;99.90;;;;;;5051160;28;21747;-77
2023/11/12 07:41:44;;;;;;;5.47;3.05;;;4.80;99.90;;;;;;5049234;28;20040;-77
2023/11/12 07:44:09;;;;;;;3.90;1.83;;;4.70;99.90;;;;;;5053688;28;20036;-78
2023/11/12 07:46:40;;;;;;;5.53;1.77;;;4.60;99.90;;;;;;5052168;28;20044;-78
2023/11/12 07:49:06;;;;;;;3.28;1.40;;;4.60;99.90;;;;;;5051285;28;20040;-81
2023/11/12 07:51:31;;;;;;;2.92;1.33;;;4.60;99.90;;;;;;5048432;28;20044;-79
2023/11/12 07:53:57;;;;;;;3.30;1.65;;;4.60;99.90;;;;;;5051040;28;20033;-80
2023/11/12 07:56:23;;;;;;;3.70;1.33;;;4.60;99.90;;;;;;5049647;28;20052;-79
2023/11/12 07:58:48;;;;;;;3.00;1.48;;;4.60;99.90;;;;;;5049605;28;20046;-78
2023/11/12 08:01:15;;;;;;;3.75;1.38;;;4.60;99.90;;;;;;5049647;28;20097;-78
2023/11/12 08:03:41;;;;;;;3.65;1.63;;;4.70;99.90;;;;;;5047200;28;20033;-78
2023/11/12 08:06:09;;;;;;;4.10;1.50;;;4.80;99.90;;;;;;5047366;28;20414;-79
2023/11/12 08:08:35;;;;;;;3.03;1.48;;;4.80;99.90;;;;;;5048849;28;20658;-79
2023/11/12 08:11:00;;;;;;;2.55;1.25;;;4.80;99.90;;;;;;5050663;28;20101;-78
2023/11/12 08:13:27;;;;;;;2.97;1.42;;;4.70;99.90;;;;;;5050453;28;20531;-79
2023/11/12 08:15:53;;;;;;;6.40;1.27;;;4.80;99.90;;;;;;5048674;28;20055;-79
2023/11/12 08:18:18;;;;;;;2.50;1.10;;;4.80;99.90;;;;;;5048848;28;20687;-80
2023/11/12 08:20:44;;;;;;;3.80;1.50;;;4.80;99.90;;;;;;5048778;28;20636;-78
2023/11/12 08:23:10;;;;;;;2.80;1.42;;;4.90;99.90;;;;;;5050124;28;20032;-80
2023/11/12 08:25:37;;;;;;;5.28;1.40;;;4.80;99.90;;;;;;5048987;28;20028;-81
2023/11/12 08:28:03;;;;;;;3.97;1.65;;;5.30;99.90;;;;;;5050710;28;20683;-80
2023/11/12 08:30:29;;;;;;;3.33;1.77;;;5.20;99.90;;;;;;5050687;28;20044;-79
2023/11/12 08:32:55;;;;;;;3.78;1.85;;;5.10;99.90;;;;;;5050226;28;20032;-79
2023/11/12 08:35:20;;;;;;;4.68;2.40;;;5.10;99.90;;;;;;5050755;28;20043;-79
2023/11/12 08:37:46;;;;;;;4.95;2.38;;;4.80;99.90;;;;;;5050210;28;20094;-80
2023/11/12 08:40:12;;;;;;;4.75;2.33;;;4.50;99.90;;;;;;5050460;28;20036;-80
2023/11/12 08:42:38;;;;;;;5.00;2.22;;;4.50;99.90;;;;;;5051047;28;20036;-79
2023/11/12 08:45:04;;;;;;;6.63;3.15;;;4.70;99.90;;;;;;5051423;28;20426;-79
2023/11/12 08:47:33;;;;;;;7.30;3.90;;;4.70;99.90;;;;;;5050122;28;20517;-80
2023/11/12 08:49:59;;;;;;;16.27;10.05;;;4.70;99.90;;;;;;5049712;28;20467;-79
2023/11/12 08:52:25;;;;;;;12.98;8.82;;;4.80;99.90;;;;;;5051191;28;20033;-80
2023/11/12 08:54:51;;;;;;;9.75;5.43;;;4.80;99.90;;;;;;5050384;28;21459;-79
2023/11/12 08:57:17;;;;;;;6.85;2.67;;;4.80;99.90;;;;;;5049665;28;20060;-80
2023/11/12 08:59:42;;;;;;;5.47;2.60;;;4.70;99.90;;;;;;5051354;28;20064;-79
2023/11/12 09:02:08;;;;;;;4.85;2.33;;;4.80;99.90;;;;;;5049451;28;20069;-79
2023/11/12 09:04:37;;;;;;;4.15;1.50;;;4.90;99.90;;;;;;5050066;28;20119;-79
2023/11/12 09:07:04;;;;;;;4.93;2.10;;;4.90;99.90;;;;;;5050043;28;20111;-79
2023/11/12 09:09:29;;;;;;;4.72;2.20;;;5.00;99.90;;;;;;5050105;28;20044;-79
2023/11/12 09:11:56;;;;;;;8.50;6.75;;;5.10;99.90;;;;;;5050285;28;20075;-79
2023/11/12 09:14:22;;;;;;;11.45;5.03;;;5.40;99.90;;;;;;5050787;28;20150;-79
2023/11/12 09:16:48;;;;;;;5.95;3.08;;;5.10;99.90;;;;;;5048235;28;20603;-79
2023/11/12 09:19:14;;;;;;;7.22;2.33;;;5.10;99.90;;;;;;5050071;28;20037;-79
2023/11/12 09:21:42;;;;;;;4.47;2.25;;;5.20;99.90;;;;;;5050807;28;20119;-79
2023/11/12 09:24:08;;;;;;;8.57;3.60;;;5.40;99.90;;;;;;5049121;28;20486;-80
2023/11/12 09:26:34;;;;;;;6.40;2.78;;;5.50;99.90;;;;;;5050348;28;20032;-79
2023/11/12 09:28:59;;;;;;;4.88;2.45;;;5.70;99.90;;;;;;5051543;28;20036;-78
2023/11/12 09:31:26;;;;;;;4.60;2.55;;;5.80;99.90;;;;;;5050004;28;20040;-79
2023/11/12 09:33:51;;;;;;;6.03;3.00;;;5.80;99.90;;;;;;5048870;28;20036;-80
2023/11/12 09:36:17;;;;;;;4.70;2.22;;;5.80;99.90;;;;;;5049240;28;20681;-83
2023/11/12 09:38:43;;;;;;;4.25;1.95;;;5.90;99.90;;;;;;5050279;28;20592;-82
2023/11/12 09:41:10;;;;;;;7.40;3.40;;;5.90;99.90;;;;;;5051220;28;20044;-79
2023/11/12 09:43:36;;;;;;;4.40;2.05;;;5.90;99.90;;;;;;5053626;28;20566;-77
2023/11/12 09:46:07;;;;;;;4.45;1.60;;;5.90;99.90;;;;;;5054126;28;20508;-80
2023/11/12 09:48:39;;;;;;;4.50;2.25;;;5.80;99.90;;;;;;5053704;28;20375;-81
2023/11/12 09:51:09;;;;;;;4.00;1.83;;;5.90;99.90;;;;;;5053211;28;20037;-82
2023/11/12 09:53:45;;;;;;;3.28;1.63;;;5.90;99.90;;;;;;5053573;28;20064;-80
2023/11/12 09:56:13;;;;;;;3.78;1.88;;;6.10;99.90;;;;;;5055350;28;20049;-80
2023/11/12 09:58:45;;;;;;;16.92;10.70;;;6.20;99.90;;;;;;5053771;28;20673;-80
2023/11/12 10:01:12;;;;;;;5.95;3.10;;;6.10;99.90;;;;;;5053486;28;20064;-80
2023/11/12 10:03:47;;;;;;;4.95;1.80;;;6.10;99.90;;;;;;5054000;28;20449;-80
2023/11/12 10:06:13;;;;;;;4.93;1.95;;;6.10;99.90;;;;;;5053550;28;20032;-80
2023/11/12 10:08:39;;;;;;;5.13;1.75;;;6.00;99.90;;;;;;5053336;28;20421;-80
2023/11/12 10:11:23;;;;;;;4.00;1.60;;;6.10;99.90;;;;;;5054746;28;20028;-83
2023/11/12 10:13:51;;;;;;;3.90;1.80;;;6.10;99.90;;;;;;5053888;28;20514;-79
2023/11/12 10:16:31;;;;;;;3.90;1.75;;;6.00;99.90;;;;;;5052620;28;20751;-78
2023/11/12 10:19:11;;;;;;;3.63;1.70;;;6.10;99.90;;;;;;5053379;28;20040;-79
2023/11/12 10:21:58;;;;;;;4.18;2.45;;;6.20;99.90;;;;;;5053120;28;20044;-79
2023/11/12 10:24:27;;;;;;;4.72;2.35;;;6.20;99.90;;;;;;5053101;28;20032;-79
2023/11/12 10:27:05;;;;;;;4.65;2.08;;;6.40;99.90;;;;;;5053197;28;20608;-79
2023/11/12 10:29:31;;;;;;;5.85;2.60;;;6.60;99.90;;;;;;5053196;28;20037;-79
2023/11/12 10:31:57;;;;;;;5.82;3.10;;;6.70;99.90;;;;;;5053477;28;20028;-79
2023/11/12 10:34:26;;;;;;;4.82;2.45;;;6.60;99.90;;;;;;5054884;28;20472;-79
2023/11/12 10:37:01;;;;;;;5.13;2.28;;;6.70;99.90;;;;;;5055490;28;20031;-79
2023/11/12 10:39:47;;;;;;;4.32;2.25;;;6.70;99.90;;;;;;5055995;28;20037;-79
2023/11/12 10:42:26;;;;;;;4.57;2.00;;;6.80;99.90;;;;;;5052097;28;20076;-79
2023/11/12 10:44:59;;;;;;;4.20;2.00;;;6.90;99.90;;;;;;5050610;28;20043;-79
2023/11/12 10:47:32;;;;;;;14.35;7.90;;;7.00;99.90;;;;;;5051067;28;20379;-79
2023/11/12 10:49:59;;;;;;;6.28;3.10;;;7.00;99.90;;;;;;5051081;28;20039;-79
2023/11/12 10:52:26;;;;;;;7.50;3.85;;;6.90;99.90;;;;;;5052390;28;20036;-79
2023/11/12 10:54:58;;;;;;;5.82;2.47;;;6.90;99.90;;;;;;5050078;28;21459;-80
2023/11/12 10:57:24;;;;;;;5.40;2.40;;;6.80;99.90;;;;;;5051141;28;20151;-77
2023/11/12 10:59:51;;;;;;;4.38;2.05;;;6.80;99.90;;;;;;5046245;28;20041;-80
2023/11/12 11:02:19;;;;;;;5.78;3.47;;;7.00;99.90;;;;;;5051415;28;20048;-80
2023/11/12 11:04:46;;;;;;;7.07;3.67;;;7.20;99.90;;;;;;5054237;28;20032;-80
2023/11/12 11:07:16;;;;;;;4.75;2.10;;;7.20;99.90;;;;;;5054453;28;20047;-80
2023/11/12 11:09:42;;;;;;;4.55;2.05;;;7.40;99.90;;;;;;5053837;28;20042;-80
2023/11/12 11:12:10;;;;;;;5.43;2.28;;;7.40;99.90;;;;;;5053995;28;20056;-78
2023/11/12 11:14:35;;;;;;;6.50;2.80;;;7.40;99.90;;;;;;5054921;28;20382;-77
2023/11/12 11:17:05;;;;;;;4.82;2.08;;;7.40;99.90;;;;;;5052677;28;20032;-78
2023/11/12 11:19:54;;;;;;;4.05;2.00;;;7.20;99.90;;;;;;5053787;28;20395;-78
2023/11/12 11:22:33;;;;;;;4.82;2.78;;;7.30;99.90;;;;;;5050742;28;20059;-77
2023/11/12 11:25:19;;;;;;;5.57;2.55;;;7.30;99.90;;;;;;5054517;28;20406;-77
2023/11/12 11:27:46;;;;;;;5.30;1.75;;;7.50;99.90;;;;;;5054671;28;20554;-77
2023/11/12 11:30:16;;;;;;;5.47;2.38;;;7.60;99.90;;;;;;5055636;28;20440;-78
2023/11/12 11:32:57;;;;;;;3.85;2.28;;;7.40;99.90;;;;;;5054754;28;20033;-77
2023/11/12 11:35:27;;;;;;;5.38;1.85;;;7.50;99.90;;;;;;5055403;28;20029;-77
2023/11/12 11:38:14;;;;;;;3.97;1.98;;;7.30;99.90;;;;;;5053023;28;20059;-78
2023/11/12 11:40:45;;;;;;;3.83;1.55;;;7.50;99.90;;;;;;5053184;28;20380;-78
2023/11/12 11:43:22;;;;;;;3.20;1.42;;;7.50;99.90;;;;;;5053499;28;20055;-78
2023/11/12 11:46:10;;;;;;;3.25;1.45;;;7.60;99.90;;;;;;5053573;28;20028;-78
2023/11/12 11:48:56;;;;;;;5.43;1.48;;;7.70;99.90;;;;;;5053804;28;20036;-78
2023/11/12 11:51:37;;;;;;;4.93;2.20;;;7.80;99.90;;;;;;5053349;28;20921;-77
2023/11/12 11:54:12;;;;;;;12.00;4.05;;;7.80;99.90;;;;;;5053523;28;20032;-78
2023/11/12 11:56:37;;;;;;;6.22;2.80;;;7.80;99.90;;;;;;5053045;28;20076;-78
2023/11/12 11:59:03;;;;;;;5.82;2.80;;;7.70;99.90;;;;;;5052611;28;20112;-78
2023/11/12 12:01:29;;;;;;;4.45;2.30;;;7.70;99.90;;;;;;5052676;28;20389;-78
2023/11/12 12:04:04;;;;;;;8.63;3.42;;;7.70;99.90;;;;;;5050619;28;20037;-78
2023/11/12 12:06:31;;;;;;;7.10;3.10;;;7.90;99.90;;;;;;5053796;28;20328;-77
2023/11/12 12:08:57;;;;;;;6.00;3.53;;;8.00;99.90;;;;;;5052570;28;20255;-77
2023/11/12 12:11:24;;;;;;;5.75;2.90;;;7.90;99.90;;;;;;5053337;28;20066;-77
2023/11/12 12:14:01;;;;;;;7.40;4.75;;;7.80;99.90;;;;;;5050600;28;20037;-77
2023/11/12 12:16:32;;;;;;;10.43;7.35;;;7.60;99.90;;;;;;5050783;28;20076;-77
2023/11/12 12:18:58;;;;;;;8.15;3.50;;;7.80;99.90;;;;;;5052903;28;20727;-77
2023/11/12 12:21:25;;;;;;;5.78;3.05;;;7.60;99.90;;;;;;5052664;28;20071;-74
2023/11/12 12:23:51;;;;;;;5.05;2.90;;;7.50;99.90;;;;;;5051328;28;20032;-78
2023/11/12 12:26:17;;;;;;;6.75;3.22;;;7.70;99.90;;;;;;5052459;28;20028;-77
2023/11/12 12:28:43;;;;;;;6.30;3.50;;;7.80;99.90;;;;;;5052758;28;20042;-74
2023/11/12 12:31:09;;;;;;;5.85;3.03;;;8.00;99.90;;;;;;5051065;28;20047;-74
2023/11/12 12:33:36;;;;;;;6.25;2.55;;;8.10;99.90;;;;;;5050650;28;20094;-75
2023/11/12 12:36:13;;;;;;;5.45;2.75;;;8.30;99.90;;;;;;5052873;28;20115;-74
2023/11/12 12:38:59;;;;;;;7.03;3.92;;;8.60;99.90;;;;;;5053844;28;20141;-75
2023/11/12 12:41:28;;;;;;;10.75;5.13;;;8.60;99.90;;;;;;5053820;28;20040;-77
2023/11/12 12:43:57;;;;;;;15.18;10.38;;;8.60;99.90;;;;;;5052703;28;20517;-76
2023/11/12 12:46:41;;;;;;;10.75;6.97;;;8.60;99.90;;;;;;5050687;28;20029;-76
2023/11/12 12:49:06;;;;;;;8.80;4.17;;;8.60;99.90;;;;;;5053369;28;20064;-78
2023/11/12 12:51:34;;;;;;;9.32;3.90;;;8.60;99.90;;;;;;5053868;28;20147;-78
2023/11/12 12:54:01;;;;;;;4.50;1.90;;;8.40;99.90;;;;;;5051629;28;20021;-76
2023/11/12 12:56:27;;;;;;;6.68;2.63;;;8.30;99.90;;;;;;5053634;28;20052;-77